Time;durP1;ratioP1;P1;durP2;ratioP2;P2;SDS_P1;SDS_P2;PMS_P1;PMS_P2;Temp;Humidity;BMP_temperature;BMP_pressure;BME280_temperature;BME280_humidity;BME280_pressure;Samples;Min_cycle;Max_cycle;Signal;HPM_P1;HPM_P2
2022/03/06 00:02:07;;;;;;;18.57;12.47;;;4.90;53.70;;;;;;6227087;28;20464;-60
2022/03/06 00:05:11;;;;;;;15.53;11.93;;;4.90;53.60;;;;;;6230310;28;20566;-60
2022/03/06 00:08:15;;;;;;;14.50;12.20;;;4.90;53.30;;;;;;6230149;28;20468;-59
2022/03/06 00:11:18;;;;;;;15.13;11.70;;;4.90;53.30;;;;;;6229665;28;20815;-59
2022/03/06 00:14:21;;;;;;;16.80;12.90;;;4.90;53.50;;;;;;6230222;28;20555;-59
2022/03/06 00:17:25;;;;;;;14.40;11.67;;;4.80;53.50;;;;;;6232479;28;20483;-59
2022/03/06 00:20:28;;;;;;;17.03;12.07;;;4.80;53.90;;;;;;6230422;28;20490;-59
2022/03/06 00:23:34;;;;;;;15.87;12.20;;;4.80;54.00;;;;;;6229815;28;20468;-59
2022/03/06 00:26:37;;;;;;;18.70;12.40;;;4.80;54.00;;;;;;6229715;28;20561;-59
2022/03/06 00:29:41;;;;;;;18.00;12.70;;;4.80;54.00;;;;;;6229675;28;20887;-59
2022/03/06 00:32:44;;;;;;;15.93;11.90;;;4.80;54.20;;;;;;6246870;28;20476;-59
2022/03/06 00:35:47;;;;;;;13.70;11.53;;;4.80;54.50;;;;;;6224093;28;20484;-59
2022/03/06 00:38:51;;;;;;;16.47;13.70;;;4.80;54.50;;;;;;6229123;28;20484;-60
2022/03/06 00:41:55;;;;;;;17.40;12.67;;;4.70;54.60;;;;;;6229126;28;20476;-59
2022/03/06 00:44:58;;;;;;;17.90;12.67;;;4.70;54.60;;;;;;6229153;28;20491;-59
2022/03/06 00:48:01;;;;;;;18.57;12.70;;;4.70;54.70;;;;;;6229376;28;20468;-59
2022/03/06 00:51:04;;;;;;;20.10;13.57;;;4.60;54.70;;;;;;6228811;28;20910;-59
2022/03/06 00:54:08;;;;;;;14.80;11.47;;;4.60;54.80;;;;;;6229256;28;20523;-59
2022/03/06 00:57:11;;;;;;;18.90;14.70;;;4.70;54.90;;;;;;6228764;28;20936;-59
2022/03/06 01:00:15;;;;;;;18.93;14.37;;;4.60;54.80;;;;;;6228937;28;20473;-59
2022/03/06 01:03:21;;;;;;;17.63;14.07;;;4.70;54.90;;;;;;6228983;28;20471;-60
2022/03/06 01:06:24;;;;;;;19.30;14.83;;;4.70;54.80;;;;;;6229531;28;20558;-59
2022/03/06 01:09:29;;;;;;;22.90;13.90;;;4.60;54.80;;;;;;6229201;28;20480;-59
2022/03/06 01:12:32;;;;;;;18.60;14.17;;;4.70;55.00;;;;;;6228936;28;20479;-59
2022/03/06 01:15:36;;;;;;;14.03;12.27;;;4.60;54.90;;;;;;6227704;28;20486;-59
2022/03/06 01:18:39;;;;;;;18.83;13.10;;;4.60;55.10;;;;;;6228913;28;20483;-59
2022/03/06 01:21:43;;;;;;;20.00;13.47;;;4.60;55.20;;;;;;6228618;28;20936;-59
2022/03/06 01:24:47;;;;;;;19.73;13.23;;;4.60;55.30;;;;;;6228163;28;20480;-59
2022/03/06 01:27:50;;;;;;;16.23;12.27;;;4.60;55.50;;;;;;6228218;28;20952;-59
2022/03/06 01:30:53;;;;;;;18.23;12.07;;;4.60;55.50;;;;;;6228333;28;20476;-59
2022/03/06 01:33:57;;;;;;;15.77;12.87;;;4.60;55.50;;;;;;6228304;28;20481;-59
2022/03/06 01:37:00;;;;;;;17.90;13.00;;;4.60;55.60;;;;;;6228373;28;20479;-59
2022/03/06 01:40:07;;;;;;;15.13;11.67;;;4.60;55.70;;;;;;6219011;28;20500;-59
2022/03/06 01:43:10;;;;;;;17.67;12.30;;;4.60;55.70;;;;;;6232622;28;20473;-60
2022/03/06 01:46:14;;;;;;;18.20;11.73;;;4.50;55.70;;;;;;6229253;28;20488;-59
2022/03/06 01:49:18;;;;;;;18.00;13.17;;;4.50;56.20;;;;;;6228358;28;20956;-60
2022/03/06 01:52:21;;;;;;;18.97;12.07;;;4.40;56.50;;;;;;6229462;28;20479;-59
2022/03/06 01:55:26;;;;;;;19.97;12.70;;;4.50;56.70;;;;;;6229990;28;20511;-59
2022/03/06 01:58:30;;;;;;;17.17;12.07;;;4.50;56.50;;;;;;6229114;28;20473;-59
2022/03/06 02:01:36;;;;;;;17.50;12.60;;;4.40;56.70;;;;;;6228396;28;20924;-59
2022/03/06 02:04:39;;;;;;;15.63;12.50;;;4.40;56.90;;;;;;6228977;28;20787;-59
2022/03/06 02:07:42;;;;;;;17.80;13.57;;;4.40;56.70;;;;;;6227854;28;20476;-59
2022/03/06 02:10:49;;;;;;;16.53;11.30;;;4.40;56.70;;;;;;6227801;28;20836;-59
2022/03/06 02:13:52;;;;;;;17.43;11.93;;;4.40;56.60;;;;;;6227071;28;20464;-59
2022/03/06 02:16:55;;;;;;;18.47;12.83;;;4.40;56.70;;;;;;6227272;28;20489;-59
2022/03/06 02:20:00;;;;;;;16.40;11.97;;;4.50;56.80;;;;;;6226948;28;20469;-59
2022/03/06 02:23:04;;;;;;;17.77;12.97;;;4.40;56.60;;;;;;6226801;28;20983;-59
2022/03/06 02:26:08;;;;;;;18.03;12.63;;;4.40;56.70;;;;;;6226096;28;20468;-60
2022/03/06 02:29:12;;;;;;;16.90;12.67;;;4.40;56.70;;;;;;6227283;28;20476;-59
2022/03/06 02:32:16;;;;;;;19.70;12.87;;;4.40;56.80;;;;;;6227187;28;20476;-59
2022/03/06 02:35:21;;;;;;;14.20;10.67;;;4.40;56.70;;;;;;6226444;28;20958;-60
2022/03/06 02:38:26;;;;;;;18.33;12.50;;;4.40;57.30;;;;;;6226434;28;20472;-60
2022/03/06 02:41:35;;;;;;;16.50;11.33;;;4.40;56.90;;;;;;6221753;28;20475;-60
2022/03/06 02:44:38;;;;;;;16.70;12.87;;;4.40;56.90;;;;;;6226879;28;20480;-60
2022/03/06 02:47:43;;;;;;;12.40;10.23;;;4.40;56.90;;;;;;6225921;28;20968;-60
2022/03/06 02:50:46;;;;;;;17.37;11.70;;;4.50;57.10;;;;;;6226337;28;20487;-60
2022/03/06 02:53:50;;;;;;;14.87;11.47;;;4.40;57.10;;;;;;6226222;28;20480;-60
2022/03/06 02:56:53;;;;;;;16.60;11.07;;;4.40;57.20;;;;;;6226703;28;20472;-60
2022/03/06 02:59:57;;;;;;;12.33;10.83;;;4.40;57.00;;;;;;6226289;28;20472;-60
2022/03/06 03:03:00;;;;;;;12.00;10.73;;;4.40;57.00;;;;;;6226336;28;20488;-60
2022/03/06 03:06:07;;;;;;;15.30;11.63;;;4.40;56.90;;;;;;6226205;28;20488;-59
2022/03/06 03:09:13;;;;;;;13.90;11.40;;;4.40;57.00;;;;;;6225856;28;20491;-60
2022/03/06 03:12:16;;;;;;;16.13;11.10;;;4.30;57.00;;;;;;6226801;28;20479;-60
2022/03/06 03:15:19;;;;;;;15.03;10.90;;;4.40;57.10;;;;;;6226461;28;20483;-60
2022/03/06 03:18:22;;;;;;;14.37;10.60;;;4.30;57.20;;;;;;6225748;28;20484;-60
2022/03/06 03:21:25;;;;;;;17.33;12.83;;;4.30;57.20;;;;;;6225852;28;20481;-60
2022/03/06 03:24:30;;;;;;;17.20;12.40;;;4.30;57.20;;;;;;6225680;28;20472;-60
2022/03/06 03:27:33;;;;;;;13.13;10.43;;;4.30;57.40;;;;;;6225676;28;20964;-60
2022/03/06 03:30:37;;;;;;;12.70;10.43;;;4.20;57.40;;;;;;6225681;28;20526;-60
2022/03/06 03:33:40;;;;;;;14.30;10.57;;;4.20;57.40;;;;;;6225778;28;20670;-60
2022/03/06 03:36:43;;;;;;;16.10;11.20;;;4.20;57.40;;;;;;6226850;28;20464;-60
2022/03/06 03:39:47;;;;;;;14.97;11.70;;;4.20;55.60;;;;;;6230643;28;20472;-60
2022/03/06 03:42:51;;;;;;;18.40;12.23;;;4.20;55.40;;;;;;6235505;28;20476;-60
2022/03/06 03:45:54;;;;;;;16.17;11.47;;;4.30;55.60;;;;;;6251504;28;20475;-60
2022/03/06 03:48:57;;;;;;;15.13;11.47;;;4.30;56.10;;;;;;6220537;28;20551;-60
2022/03/06 03:52:00;;;;;;;14.40;11.17;;;4.30;56.10;;;;;;6214478;28;20486;-60
2022/03/06 03:55:05;;;;;;;17.50;12.90;;;4.30;55.50;;;;;;6216872;28;20487;-60
2022/03/06 03:58:08;;;;;;;16.13;11.83;;;4.30;54.40;;;;;;6217432;28;20483;-61
2022/03/06 04:01:11;;;;;;;13.67;11.23;;;4.20;53.90;;;;;;6218675;28;20481;-62
2022/03/06 04:04:15;;;;;;;14.60;11.27;;;4.30;54.60;;;;;;6218073;28;20472;-61
2022/03/06 04:07:18;;;;;;;16.20;11.20;;;4.20;54.00;;;;;;6213862;28;20481;-60
2022/03/06 04:10:23;;;;;;;18.27;12.87;;;4.30;53.80;;;;;;6222103;28;20484;-60
2022/03/06 04:13:26;;;;;;;16.03;10.70;;;4.30;53.40;;;;;;6226301;28;20944;-60
2022/03/06 04:16:29;;;;;;;18.63;13.00;;;4.30;53.20;;;;;;6225563;28;20991;-60
2022/03/06 04:19:32;;;;;;;16.97;11.90;;;4.30;53.00;;;;;;6227392;28;20476;-60
2022/03/06 04:22:35;;;;;;;15.07;11.63;;;4.30;53.20;;;;;;6218716;28;20472;-60
2022/03/06 04:25:40;;;;;;;17.87;12.93;;;4.30;53.20;;;;;;6217478;28;20511;-60
2022/03/06 04:28:43;;;;;;;18.13;13.13;;;4.30;53.10;;;;;;6213238;28;21923;-59
2022/03/06 04:31:46;;;;;;;16.13;12.50;;;4.30;53.10;;;;;;6212939;28;20437;-60
2022/03/06 04:34:49;;;;;;;19.13;13.10;;;4.30;53.10;;;;;;6222206;28;20445;-60
2022/03/06 04:37:52;;;;;;;17.77;12.20;;;4.40;53.20;;;;;;6205331;28;20441;-60
2022/03/06 04:40:57;;;;;;;18.10;12.27;;;4.40;53.80;;;;;;6204924;28;20586;-60
2022/03/06 04:44:00;;;;;;;16.77;12.07;;;4.40;53.90;;;;;;6205176;28;20488;-61
2022/03/06 04:47:04;;;;;;;15.60;11.73;;;4.50;53.70;;;;;;6204803;28;20551;-60
2022/03/06 04:50:08;;;;;;;14.87;12.00;;;4.40;53.20;;;;;;6199315;28;20477;-60
2022/03/06 04:53:11;;;;;;;17.47;12.37;;;4.40;53.20;;;;;;6204599;28;20476;-60
2022/03/06 04:56:16;;;;;;;15.30;11.30;;;4.50;53.40;;;;;;6204748;28;20477;-60
2022/03/06 04:59:19;;;;;;;17.77;11.97;;;4.50;53.40;;;;;;6204425;28;20972;-60
2022/03/06 05:02:22;;;;;;;17.93;12.33;;;4.50;53.10;;;;;;6204345;28;20964;-60
2022/03/06 05:05:26;;;;;;;16.80;13.30;;;4.50;52.90;;;;;;6204666;28;20549;-60
2022/03/06 05:08:29;;;;;;;17.40;12.17;;;4.50;52.60;;;;;;6204441;28;20481;-61
2022/03/06 05:11:34;;;;;;;18.13;12.33;;;4.50;52.40;;;;;;6204016;28;20953;-60
2022/03/06 05:14:37;;;;;;;15.90;12.00;;;4.40;52.50;;;;;;6204130;28;20485;-60
2022/03/06 05:17:41;;;;;;;18.47;12.10;;;4.50;52.60;;;;;;6204075;28;20483;-61
2022/03/06 05:20:44;;;;;;;16.77;13.60;;;4.40;52.70;;;;;;6204574;28;20484;-60
2022/03/06 05:23:47;;;;;;;17.73;12.90;;;4.40;52.50;;;;;;6204656;28;20477;-61
2022/03/06 05:26:52;;;;;;;17.00;12.00;;;4.40;52.50;;;;;;6203924;28;20484;-60
2022/03/06 05:29:55;;;;;;;15.67;12.00;;;4.40;52.40;;;;;;6203832;28;20532;-61
2022/03/06 05:32:58;;;;;;;13.83;11.03;;;4.40;52.30;;;;;;6206064;28;20484;-61
2022/03/06 05:36:02;;;;;;;18.17;12.70;;;4.40;52.30;;;;;;6206936;28;20473;-61
2022/03/06 05:39:05;;;;;;;14.60;11.07;;;4.30;52.20;;;;;;6204204;28;20492;-60
2022/03/06 05:42:09;;;;;;;14.67;12.50;;;4.30;52.30;;;;;;6205236;28;20488;-60
2022/03/06 05:45:12;;;;;;;17.13;12.13;;;4.30;52.30;;;;;;6204863;28;20822;-60
2022/03/06 05:48:16;;;;;;;16.67;11.90;;;4.30;52.40;;;;;;6204191;28;20485;-60
2022/03/06 05:51:19;;;;;;;16.60;11.30;;;4.30;52.50;;;;;;6204004;28;20987;-60
2022/03/06 05:54:22;;;;;;;15.37;11.67;;;4.30;52.00;;;;;;6194564;28;20481;-59
2022/03/06 05:57:26;;;;;;;17.13;11.80;;;4.30;52.10;;;;;;6204129;28;20473;-60
2022/03/06 06:00:30;;;;;;;17.10;12.10;;;4.30;52.20;;;;;;6205110;28;20478;-59
2022/03/06 06:03:33;;;;;;;13.03;11.23;;;4.30;52.30;;;;;;6204053;28;20477;-60
2022/03/06 06:06:36;;;;;;;16.93;11.53;;;4.30;52.30;;;;;;6203056;28;20805;-61
2022/03/06 06:09:39;;;;;;;16.57;11.20;;;4.30;52.10;;;;;;6202631;28;20809;-60
2022/03/06 06:12:44;;;;;;;18.07;13.20;;;4.40;52.00;;;;;;6202781;28;20493;-61
2022/03/06 06:15:47;;;;;;;18.97;13.10;;;4.40;52.10;;;;;;6202619;28;20973;-59
2022/03/06 06:18:50;;;;;;;16.00;12.47;;;4.40;52.20;;;;;;6202677;28;20491;-60
2022/03/06 06:21:53;;;;;;;17.53;13.53;;;4.40;52.30;;;;;;6202727;28;20518;-60
2022/03/06 06:24:56;;;;;;;21.70;13.03;;;4.40;52.40;;;;;;6202622;28;20531;-60
2022/03/06 06:28:01;;;;;;;16.23;12.70;;;4.40;52.40;;;;;;6202959;28;20485;-60
2022/03/06 06:31:05;;;;;;;19.43;12.70;;;4.40;52.50;;;;;;6203361;28;20950;-60
2022/03/06 06:34:09;;;;;;;21.77;13.50;;;4.40;52.60;;;;;;6202325;28;20488;-60
2022/03/06 06:37:12;;;;;;;20.37;14.57;;;4.40;52.80;;;;;;6202431;28;20477;-60
2022/03/06 06:40:15;;;;;;;16.97;13.40;;;4.30;53.00;;;;;;6202060;28;20802;-60
2022/03/06 06:43:20;;;;;;;18.43;14.07;;;4.40;52.80;;;;;;6202199;28;20469;-60
2022/03/06 06:46:23;;;;;;;16.33;13.27;;;4.40;52.80;;;;;;6201906;28;20965;-60
2022/03/06 06:49:26;;;;;;;15.80;13.90;;;4.40;52.80;;;;;;6202769;28;20926;-59
2022/03/06 06:52:29;;;;;;;17.67;14.20;;;4.40;53.00;;;;;;6201681;28;20532;-59
2022/03/06 06:55:34;;;;;;;18.37;13.57;;;4.40;53.00;;;;;;6203540;28;20472;-60
2022/03/06 06:58:39;;;;;;;19.33;12.97;;;4.40;53.00;;;;;;6202031;28;20505;-60
2022/03/06 07:01:42;;;;;;;16.47;11.87;;;4.50;53.10;;;;;;6211961;28;20437;-60
2022/03/06 07:04:46;;;;;;;19.60;13.40;;;4.50;53.20;;;;;;6201995;28;20528;-59
2022/03/06 07:07:49;;;;;;;18.10;11.57;;;4.60;53.10;;;;;;6202031;28;20487;-59
2022/03/06 07:10:52;;;;;;;20.43;12.40;;;4.60;53.00;;;;;;6201168;28;20465;-59
2022/03/06 07:13:56;;;;;;;18.93;12.97;;;4.70;53.10;;;;;;6202028;28;20449;-60
2022/03/06 07:17:04;;;;;;;19.10;13.67;;;4.70;52.90;;;;;;6202505;28;20500;-60
2022/03/06 07:20:08;;;;;;;15.47;13.17;;;4.80;52.80;;;;;;6211992;28;20557;-60
2022/03/06 07:23:11;;;;;;;14.97;12.37;;;4.80;52.40;;;;;;6209816;28;20473;-60
2022/03/06 07:26:14;;;;;;;20.27;13.80;;;5.00;52.50;;;;;;6201948;28;20469;-60
2022/03/06 07:29:19;;;;;;;18.57;12.40;;;5.10;51.70;;;;;;6201348;28;20473;-60
2022/03/06 07:32:22;;;;;;;19.53;14.43;;;5.20;51.70;;;;;;6202227;28;20480;-60
2022/03/06 07:35:26;;;;;;;15.93;12.53;;;5.30;51.70;;;;;;6201535;28;20484;-60
2022/03/06 07:38:29;;;;;;;15.50;13.23;;;5.40;51.40;;;;;;6201180;28;20473;-60
2022/03/06 07:41:32;;;;;;;15.03;11.57;;;5.70;51.20;;;;;;6201465;28;20480;-61
2022/03/06 07:44:36;;;;;;;18.13;14.57;;;6.00;50.40;;;;;;6201359;28;20486;-61
2022/03/06 07:47:40;;;;;;;18.40;12.20;;;6.00;49.50;;;;;;6201478;28;20470;-60
2022/03/06 07:50:43;;;;;;;22.03;15.13;;;6.10;49.50;;;;;;6201051;28;20539;-61
2022/03/06 07:53:46;;;;;;;16.50;12.87;;;6.40;48.90;;;;;;6201045;28;20473;-60
2022/03/06 07:56:50;;;;;;;18.50;14.43;;;6.80;48.20;;;;;;6200908;28;20469;-60
2022/03/06 07:59:54;;;;;;;18.53;13.83;;;7.10;46.70;;;;;;6200970;28;20538;-60
2022/03/06 08:02:57;;;;;;;18.10;12.93;;;7.50;46.30;;;;;;6187382;28;20486;-60
2022/03/06 08:06:01;;;;;;;16.10;13.47;;;7.70;45.70;;;;;;6201331;28;20473;-61
2022/03/06 08:09:09;;;;;;;16.27;12.20;;;7.90;45.10;;;;;;6200743;28;20982;-61
2022/03/06 08:12:12;;;;;;;17.47;13.13;;;8.00;44.60;;;;;;6201179;28;20478;-61
2022/03/06 08:15:17;;;;;;;17.50;14.67;;;8.10;44.40;;;;;;6201293;28;20470;-61
2022/03/06 08:18:20;;;;;;;15.83;13.50;;;8.10;44.20;;;;;;6200874;28;20484;-62
2022/03/06 08:21:24;;;;;;;19.00;14.53;;;8.20;44.00;;;;;;6200817;28;20813;-61
2022/03/06 08:24:27;;;;;;;17.13;13.73;;;8.40;43.60;;;;;;6204278;28;20475;-60
2022/03/06 08:27:32;;;;;;;18.63;14.60;;;8.40;43.30;;;;;;6205266;28;20493;-61
2022/03/06 08:30:36;;;;;;;17.70;13.77;;;8.40;42.90;;;;;;6204651;28;20526;-60
2022/03/06 08:33:39;;;;;;;19.50;14.87;;;8.40;42.70;;;;;;6205231;28;20473;-59
2022/03/06 08:36:43;;;;;;;17.30;13.73;;;8.10;42.90;;;;;;6205134;28;20489;-60
2022/03/06 08:39:46;;;;;;;16.97;13.60;;;8.10;43.60;;;;;;6204602;28;20489;-61
2022/03/06 08:42:49;;;;;;;19.10;14.60;;;7.90;43.60;;;;;;6205025;28;20473;-60
2022/03/06 08:45:59;;;;;;;16.33;12.90;;;7.90;43.90;;;;;;6204960;28;20484;-60
2022/03/06 08:49:02;;;;;;;19.50;14.60;;;8.10;43.50;;;;;;6204586;28;20550;-59
2022/03/06 08:52:07;;;;;;;15.53;13.70;;;8.50;43.30;;;;;;6204500;28;20958;-59
2022/03/06 08:55:11;;;;;;;15.37;13.27;;;8.80;42.20;;;;;;6205153;28;20499;-59
2022/03/06 08:58:14;;;;;;;18.70;15.90;;;9.00;41.80;;;;;;6205539;28;20494;-60
2022/03/06 09:01:19;;;;;;;17.00;14.17;;;9.20;41.40;;;;;;6204765;28;20484;-60
2022/03/06 09:04:22;;;;;;;17.87;14.50;;;9.40;40.70;;;;;;6204550;28;20476;-59
2022/03/06 09:07:26;;;;;;;15.57;13.97;;;9.50;40.40;;;;;;6195435;28;20495;-59
2022/03/06 09:10:29;;;;;;;18.90;13.77;;;9.60;40.20;;;;;;6204446;28;20813;-61
2022/03/06 09:13:32;;;;;;;16.50;13.33;;;9.50;40.00;;;;;;6204669;28;20480;-60
2022/03/06 09:16:36;;;;;;;18.00;16.00;;;9.60;40.30;;;;;;6204832;28;20994;-61
2022/03/06 09:19:39;;;;;;;17.00;15.10;;;9.60;40.40;;;;;;6205015;28;21006;-61
2022/03/06 09:22:43;;;;;;;16.67;13.30;;;9.60;40.30;;;;;;6205058;28;20463;-61
2022/03/06 09:25:46;;;;;;;16.30;13.60;;;9.60;39.80;;;;;;6204573;28;20452;-60
2022/03/06 09:28:49;;;;;;;18.13;13.93;;;9.60;39.50;;;;;;6208233;28;20490;-60
2022/03/06 09:31:53;;;;;;;18.87;14.40;;;9.60;39.80;;;;;;6220134;28;20506;-59
2022/03/06 09:34:56;;;;;;;16.30;13.00;;;10.00;38.70;;;;;;6220532;28;20452;-59
2022/03/06 09:38:00;;;;;;;19.57;15.47;;;10.50;38.30;;;;;;6226922;28;20729;-65
2022/03/06 09:41:05;;;;;;;16.07;14.37;;;11.10;37.10;;;;;;6226234;28;20502;-60
2022/03/06 09:44:09;;;;;;;18.73;13.73;;;11.10;36.30;;;;;;6226550;28;20479;-60
2022/03/06 09:47:14;;;;;;;17.23;14.60;;;11.00;36.30;;;;;;6226749;28;20513;-61
2022/03/06 09:50:18;;;;;;;16.20;14.50;;;11.10;36.50;;;;;;6226238;28;20479;-60
2022/03/06 09:53:21;;;;;;;17.87;14.37;;;10.60;36.80;;;;;;6225514;28;20508;-61
2022/03/06 09:56:24;;;;;;;15.07;13.50;;;10.10;37.00;;;;;;6211994;28;20976;-61
2022/03/06 09:59:27;;;;;;;18.10;13.93;;;10.10;37.60;;;;;;6204428;28;20491;-61
2022/03/06 10:02:32;;;;;;;18.47;14.37;;;10.40;37.20;;;;;;6214313;28;20470;-62
2022/03/06 10:05:37;;;;;;;15.27;13.57;;;10.50;36.80;;;;;;6227555;28;20466;-60
2022/03/06 10:08:41;;;;;;;16.07;13.10;;;10.50;36.60;;;;;;6222743;28;20480;-60
2022/03/06 10:11:44;;;;;;;17.97;14.10;;;10.50;36.50;;;;;;6229096;28;20475;-60
2022/03/06 10:14:48;;;;;;;16.03;13.90;;;10.60;36.50;;;;;;6228192;28;20514;-60
2022/03/06 10:18:01;;;;;;;17.43;13.80;;;10.70;36.40;;;;;;6227039;28;20812;-61
2022/03/06 10:21:12;;;;;;;16.43;13.50;;;11.00;36.10;;;;;;6226900;28;20486;-61
2022/03/06 10:24:16;;;;;;;17.43;13.80;;;11.50;35.40;;;;;;6226716;28;20967;-60
2022/03/06 10:27:44;;;;;;;15.97;13.53;;;12.30;33.80;;;;;;6205324;28;20491;-60
2022/03/06 10:30:47;;;;;;;16.10;14.40;;;12.50;32.90;;;;;;6202717;28;20485;-61
2022/03/06 10:34:08;;;;;;;14.53;13.07;;;15.30;32.30;;;;;;6202254;28;20481;-61
2022/03/06 10:37:14;;;;;;;15.90;14.30;;;21.00;27.50;;;;;;6202382;28;20481;-61
2022/03/06 10:40:31;;;;;;;16.97;15.33;;;25.80;22.70;;;;;;6202031;28;20242;-59
2022/03/06 10:43:35;;;;;;;16.87;15.37;;;27.60;20.10;;;;;;6203206;28;20716;-61
2022/03/06 10:46:40;;;;;;;17.70;16.10;;;30.10;18.20;;;;;;6221009;28;20212;-61
2022/03/06 10:49:59;;;;;;;17.70;16.10;;;31.10;16.40;;;;;;6226628;28;20243;-63
2022/03/06 10:53:17;;;;;;;17.30;15.90;;;30.80;15.70;;;;;;6225847;28;20229;-62
2022/03/06 10:56:20;;;;;;;19.13;17.50;;;29.50;16.40;;;;;;6201879;28;20590;-62
2022/03/06 10:59:25;;;;;;;18.70;17.00;;;28.20;16.90;;;;;;6201609;28;20248;-62
2022/03/06 11:02:28;;;;;;;16.47;15.07;;;27.60;17.30;;;;;;6212755;28;20236;-62
2022/03/06 11:05:33;;;;;;;18.50;16.87;;;27.90;17.30;;;;;;6206776;28;20240;-63
2022/03/06 11:08:38;;;;;;;16.67;15.13;;;27.60;17.40;;;;;;6201568;28;20240;-61
2022/03/06 11:11:42;;;;;;;19.30;17.70;;;29.00;16.40;;;;;;6209531;28;20255;-61
2022/03/06 11:14:46;;;;;;;17.83;16.30;;;29.50;15.70;;;;;;6226659;28;20236;-62
2022/03/06 11:17:49;;;;;;;20.10;18.30;;;29.80;15.90;;;;;;6226261;28;20653;-63
2022/03/06 11:20:55;;;;;;;18.63;16.93;;;27.80;16.00;;;;;;6208551;28;20237;-63
2022/03/06 11:24:00;;;;;;;16.90;15.23;;;24.40;17.50;;;;;;6202051;28;20241;-62
2022/03/06 11:27:37;;;;;;;17.97;16.17;;;20.20;19.90;;;;;;6201585;28;20241;-61
2022/03/06 11:30:41;;;;;;;15.17;13.53;;;17.50;22.30;;;;;;6200940;28;20245;-61
2022/03/06 11:33:55;;;;;;;17.20;14.27;;;15.60;24.00;;;;;;6201400;28;20465;-61
2022/03/06 11:37:05;;;;;;;14.37;12.83;;;14.10;25.60;;;;;;6200834;28;21008;-61
2022/03/06 11:40:35;;;;;;;16.10;13.10;;;12.90;26.90;;;;;;6200838;28;20972;-61
2022/03/06 11:43:44;;;;;;;14.60;13.00;;;11.70;28.30;;;;;;6200563;28;20464;-61
2022/03/06 11:46:47;;;;;;;16.60;13.80;;;10.70;29.50;;;;;;6217093;28;20447;-62
2022/03/06 11:49:53;;;;;;;16.13;12.03;;;10.10;30.40;;;;;;6223855;28;20494;-63
2022/03/06 11:52:58;;;;;;;16.00;12.97;;;9.60;32.10;;;;;;6226035;28;20424;-63
2022/03/06 11:56:01;;;;;;;16.10;14.03;;;9.40;32.60;;;;;;6225246;28;20474;-63
2022/03/06 11:59:06;;;;;;;18.50;13.77;;;9.20;33.10;;;;;;6228020;28;20470;-63
2022/03/06 12:02:13;;;;;;;15.77;12.40;;;9.00;33.90;;;;;;6229168;28;20797;-63
2022/03/06 12:05:17;;;;;;;17.13;12.00;;;8.80;34.60;;;;;;6229660;28;20485;-62
2022/03/06 12:08:25;;;;;;;19.40;13.77;;;8.50;35.10;;;;;;6229627;28;20557;-62
2022/03/06 12:11:28;;;;;;;13.20;11.80;;;8.30;35.60;;;;;;6229262;28;20834;-62
2022/03/06 12:14:35;;;;;;;19.80;14.47;;;8.10;36.00;;;;;;6229517;28;20616;-61
2022/03/06 12:17:39;;;;;;;14.33;11.63;;;8.00;36.10;;;;;;6220766;28;20490;-61
2022/03/06 12:20:43;;;;;;;16.50;13.00;;;7.90;36.20;;;;;;6229278;28;20484;-62
2022/03/06 12:23:48;;;;;;;13.90;11.83;;;7.80;36.80;;;;;;6229779;28;20473;-63
2022/03/06 12:26:54;;;;;;;17.93;13.70;;;7.60;37.10;;;;;;6229170;28;20477;-62
2022/03/06 12:29:57;;;;;;;14.90;12.57;;;7.40;37.30;;;;;;6229610;28;20492;-62
2022/03/06 12:33:33;;;;;;;15.40;12.33;;;7.50;37.20;;;;;;6230073;28;20477;-63
2022/03/06 12:36:36;;;;;;;15.50;13.13;;;7.50;37.20;;;;;;6230287;28;20833;-65
2022/03/06 12:39:40;;;;;;;15.13;12.00;;;7.40;37.70;;;;;;6229629;28;20503;-62
2022/03/06 12:42:46;;;;;;;15.33;13.67;;;7.50;37.60;;;;;;6229282;28;20476;-63
2022/03/06 12:45:50;;;;;;;16.30;14.00;;;7.60;37.60;;;;;;6220627;28;20483;-65
2022/03/06 12:48:53;;;;;;;18.60;13.00;;;7.80;37.50;;;;;;6203945;28;20564;-62
2022/03/06 12:51:56;;;;;;;15.97;12.93;;;7.90;37.20;;;;;;6204473;28;20541;-63
2022/03/06 12:55:04;;;;;;;15.37;12.43;;;8.10;36.40;;;;;;6204548;28;20494;-64
2022/03/06 12:58:07;;;;;;;14.97;12.10;;;7.80;37.10;;;;;;6204315;28;20469;-64
2022/03/06 13:01:11;;;;;;;13.87;12.37;;;7.90;37.60;;;;;;6204328;28;20481;-62
2022/03/06 13:04:16;;;;;;;15.50;12.87;;;8.20;37.40;;;;;;6204377;28;20482;-63
2022/03/06 13:07:24;;;;;;;17.63;13.20;;;8.30;36.80;;;;;;6204300;28;20496;-64
2022/03/06 13:10:28;;;;;;;15.97;12.40;;;8.50;36.10;;;;;;6204179;28;20483;-63
2022/03/06 13:13:31;;;;;;;14.03;12.17;;;8.60;36.00;;;;;;6214346;28;20482;-63
2022/03/06 13:16:35;;;;;;;15.80;12.33;;;8.70;36.40;;;;;;6210189;28;20475;-63
2022/03/06 13:19:40;;;;;;;16.90;13.17;;;8.80;36.00;;;;;;6215359;28;20482;-64
2022/03/06 13:22:43;;;;;;;15.17;12.90;;;8.60;35.70;;;;;;6235808;28;20509;-64
2022/03/06 13:25:49;;;;;;;19.13;12.50;;;8.60;36.00;;;;;;6239071;28;20785;-64
2022/03/06 13:28:52;;;;;;;13.00;11.63;;;8.70;36.00;;;;;;6229979;28;20780;-64
2022/03/06 13:31:55;;;;;;;14.90;12.40;;;8.90;35.80;;;;;;6229881;28;20486;-65
2022/03/06 13:34:58;;;;;;;18.10;14.20;;;9.00;35.60;;;;;;6228979;28;20473;-65
2022/03/06 13:38:04;;;;;;;14.53;12.33;;;8.90;35.40;;;;;;6228689;28;20470;-65
2022/03/06 13:41:13;;;;;;;14.33;12.30;;;9.00;35.40;;;;;;6229129;28;20521;-64
2022/03/06 13:44:17;;;;;;;15.40;13.80;;;9.10;35.10;;;;;;6231075;28;20486;-64
2022/03/06 13:47:20;;;;;;;16.13;12.90;;;9.10;35.10;;;;;;6230868;28;20573;-63
2022/03/06 13:50:26;;;;;;;15.77;13.20;;;9.20;35.00;;;;;;6231158;28;20482;-65
2022/03/06 13:53:30;;;;;;;15.17;12.70;;;9.40;34.60;;;;;;6230745;28;20853;-64
2022/03/06 13:56:37;;;;;;;14.77;13.20;;;9.60;34.70;;;;;;6229315;28;20558;-64
2022/03/06 13:59:42;;;;;;;14.97;12.60;;;9.60;34.20;;;;;;6227704;28;20479;-63
2022/03/06 14:02:46;;;;;;;14.20;11.77;;;9.60;34.20;;;;;;6228040;28;20480;-63
2022/03/06 14:05:51;;;;;;;13.57;11.77;;;9.60;34.20;;;;;;6228801;28;20534;-59
2022/03/06 14:08:54;;;;;;;14.60;13.10;;;9.70;33.40;;;;;;6228871;28;20478;-62
2022/03/06 14:12:21;;;;;;;14.80;12.50;;;9.70;33.20;;;;;;6228478;28;20514;-62
2022/03/06 14:15:24;;;;;;;15.37;12.47;;;9.50;33.00;;;;;;6228421;28;20790;-60
2022/03/06 14:18:36;;;;;;;15.83;14.17;;;9.30;33.50;;;;;;6230614;28;20554;-61
2022/03/06 14:21:43;;;;;;;15.80;12.40;;;9.30;34.00;;;;;;6204828;28;20500;-61
2022/03/06 14:24:46;;;;;;;16.10;14.20;;;9.50;34.00;;;;;;6198362;28;20472;-60
2022/03/06 14:27:51;;;;;;;14.50;12.27;;;9.60;33.60;;;;;;6206108;28;20490;-61
2022/03/06 14:30:54;;;;;;;15.23;12.57;;;9.80;33.50;;;;;;6226510;28;20483;-61
2022/03/06 14:33:58;;;;;;;14.40;11.13;;;9.80;33.00;;;;;;6226342;28;20495;-62
2022/03/06 14:37:03;;;;;;;14.20;12.30;;;9.80;32.40;;;;;;6226062;28;20490;-61
2022/03/06 14:40:07;;;;;;;13.97;12.50;;;9.80;32.40;;;;;;6226077;28;20487;-61
2022/03/06 14:43:11;;;;;;;16.87;13.03;;;9.80;32.70;;;;;;6225778;28;20492;-61
2022/03/06 14:46:17;;;;;;;17.90;13.83;;;9.80;33.10;;;;;;6225607;28;20476;-61
2022/03/06 14:49:21;;;;;;;16.97;11.60;;;9.70;33.10;;;;;;6226181;28;20478;-60
2022/03/06 14:52:24;;;;;;;13.67;11.60;;;9.50;32.90;;;;;;6226646;28;20475;-61
2022/03/06 14:55:28;;;;;;;15.03;11.80;;;9.40;32.80;;;;;;6226460;28;20482;-61
2022/03/06 14:58:50;;;;;;;14.03;11.80;;;9.30;33.00;;;;;;6225870;28;20466;-60
2022/03/06 15:01:54;;;;;;;17.80;12.70;;;9.20;33.50;;;;;;6220379;28;20452;-60
2022/03/06 15:04:59;;;;;;;12.83;10.83;;;9.00;34.00;;;;;;6201437;28;20471;-61
2022/03/06 15:08:02;;;;;;;12.90;11.40;;;8.90;34.20;;;;;;6203775;28;20471;-61
2022/03/06 15:11:06;;;;;;;13.77;12.00;;;8.90;34.40;;;;;;6203516;28;20477;-62
2022/03/06 15:14:10;;;;;;;13.47;11.30;;;8.90;34.40;;;;;;6201408;28;20974;-62
2022/03/06 15:17:13;;;;;;;13.60;10.50;;;8.80;34.00;;;;;;6202024;28;20484;-61
2022/03/06 15:20:17;;;;;;;14.63;12.03;;;8.70;34.20;;;;;;6215539;28;20470;-62
2022/03/06 15:23:20;;;;;;;16.17;13.80;;;8.70;34.70;;;;;;6225785;28;20980;-61
2022/03/06 15:26:24;;;;;;;15.27;12.60;;;8.60;35.00;;;;;;6220727;28;20961;-62
2022/03/06 15:29:28;;;;;;;15.03;12.73;;;8.50;35.20;;;;;;6225118;28;20555;-62
2022/03/06 15:32:31;;;;;;;13.80;11.17;;;8.40;35.40;;;;;;6225369;28;20492;-62
2022/03/06 15:35:34;;;;;;;14.87;12.93;;;8.30;36.30;;;;;;6225407;28;20488;-62
2022/03/06 15:38:37;;;;;;;16.17;12.83;;;8.10;35.80;;;;;;6225596;28;20841;-62
2022/03/06 15:41:41;;;;;;;14.70;12.20;;;8.10;36.30;;;;;;6225648;28;20470;-61
2022/03/06 15:44:45;;;;;;;18.00;13.00;;;8.10;36.10;;;;;;6225278;28;20547;-62
2022/03/06 15:47:49;;;;;;;17.60;13.30;;;8.00;35.90;;;;;;6225336;28;20579;-61